sensor_id;sensor_type;location;lat;lon;timestamp;pressure;altitude;pressure_sealevel;temperature;humidity
27144;BME280;14672;50.250;8.312;2022-07-22T00:00:36;99266.75;;;22.86;60.20
27144;BME280;14672;50.250;8.312;2022-07-22T00:03:09;99275.44;;;22.86;60.22
27144;BME280;14672;50.250;8.312;2022-07-22T00:05:35;99273.63;;;22.77;60.77
27144;BME280;14672;50.250;8.312;2022-07-22T00:08:01;99268.91;;;22.80;61.06
27144;BME280;14672;50.250;8.312;2022-07-22T00:10:27;99270.72;;;22.88;60.32
27144;BME280;14672;50.250;8.312;2022-07-22T00:12:53;99268.91;;;22.80;60.83
27144;BME280;14672;50.250;8.312;2022-07-22T00:15:19;99269.13;;;22.87;60.73
27144;BME280;14672;50.250;8.312;2022-07-22T00:17:45;99273.31;;;22.92;60.40
27144;BME280;14672;50.250;8.312;2022-07-22T00:20:11;99260.91;;;22.97;60.12
27144;BME280;14672;50.250;8.312;2022-07-22T00:22:37;99270.94;;;22.90;60.68
27144;BME280;14672;50.250;8.312;2022-07-22T00:25:03;99276.22;;;22.92;60.85
27144;BME280;14672;50.250;8.312;2022-07-22T00:27:30;99267.44;;;23.09;60.33
27144;BME280;14672;50.250;8.312;2022-07-22T00:29:56;99256.16;;;23.00;60.83
27144;BME280;14672;50.250;8.312;2022-07-22T00:32:22;99242.91;;;23.10;60.57
27144;BME280;14672;50.250;8.312;2022-07-22T00:34:48;99241.94;;;22.96;60.98
27144;BME280;14672;50.250;8.312;2022-07-22T00:37:14;99250.16;;;22.86;61.22
27144;BME280;14672;50.250;8.312;2022-07-22T00:39:39;99256.50;;;22.85;61.53
27144;BME280;14672;50.250;8.312;2022-07-22T00:42:05;99257.03;;;22.83;61.43
27144;BME280;14672;50.250;8.312;2022-07-22T00:44:31;99257.03;;;22.83;61.41
27144;BME280;14672;50.250;8.312;2022-07-22T00:46:58;99249.34;;;22.91;61.21
27144;BME280;14672;50.250;8.312;2022-07-22T00:49:24;99243.84;;;22.88;61.32
27144;BME280;14672;50.250;8.312;2022-07-22T00:51:50;99245.66;;;22.91;61.14
27144;BME280;14672;50.250;8.312;2022-07-22T00:54:16;99245.09;;;22.98;60.78
27144;BME280;14672;50.250;8.312;2022-07-22T00:56:42;99238.78;;;22.94;61.25
27144;BME280;14672;50.250;8.312;2022-07-22T00:59:11;99238.19;;;23.07;60.68
27144;BME280;14672;50.250;8.312;2022-07-22T01:01:37;99238.97;;;23.07;60.58
27144;BME280;14672;50.250;8.312;2022-07-22T01:04:03;99235.78;;;23.11;60.45
27144;BME280;14672;50.250;8.312;2022-07-22T01:06:31;99241.00;;;23.23;59.84
27144;BME280;14672;50.250;8.312;2022-07-22T01:08:58;99234.66;;;23.25;59.89
27144;BME280;14672;50.250;8.312;2022-07-22T01:11:25;99243.59;;;23.27;59.84
27144;BME280;14672;50.250;8.312;2022-07-22T01:13:54;99228.00;;;23.35;59.29
27144;BME280;14672;50.250;8.312;2022-07-22T01:16:20;99234.59;;;23.30;59.25
27144;BME280;14672;50.250;8.312;2022-07-22T01:18:46;99235.59;;;23.38;59.17
27144;BME280;14672;50.250;8.312;2022-07-22T01:21:14;99237.41;;;23.47;58.70
27144;BME280;14672;50.250;8.312;2022-07-22T01:23:41;99241.16;;;23.36;58.99
27144;BME280;14672;50.250;8.312;2022-07-22T01:26:08;99243.22;;;23.47;58.53
27144;BME280;14672;50.250;8.312;2022-07-22T01:28:34;99229.75;;;23.50;58.00
27144;BME280;14672;50.250;8.312;2022-07-22T01:31:00;99236.13;;;23.37;58.15
27144;BME280;14672;50.250;8.312;2022-07-22T01:33:26;99233.50;;;23.45;58.00
27144;BME280;14672;50.250;8.312;2022-07-22T01:35:53;99234.28;;;23.39;58.08
27144;BME280;14672;50.250;8.312;2022-07-22T01:38:19;99234.81;;;23.44;57.71
27144;BME280;14672;50.250;8.312;2022-07-22T01:40:46;99226.69;;;23.31;57.67
27144;BME280;14672;50.250;8.312;2022-07-22T01:43:13;99230.13;;;23.29;57.40
27144;BME280;14672;50.250;8.312;2022-07-22T01:45:48;99231.53;;;23.17;57.87
27144;BME280;14672;50.250;8.312;2022-07-22T01:48:14;99230.28;;;23.07;57.79
27144;BME280;14672;50.250;8.312;2022-07-22T01:50:41;99227.69;;;22.98;57.93
27144;BME280;14672;50.250;8.312;2022-07-22T01:53:07;99229.09;;;22.86;57.96
27144;BME280;14672;50.250;8.312;2022-07-22T01:55:34;99231.44;;;22.93;58.05
27144;BME280;14672;50.250;8.312;2022-07-22T01:58:01;99229.84;;;22.92;57.98
27144;BME280;14672;50.250;8.312;2022-07-22T02:00:26;99227.03;;;22.81;58.38
27144;BME280;14672;50.250;8.312;2022-07-22T02:02:52;99237.34;;;22.60;58.76
27144;BME280;14672;50.250;8.312;2022-07-22T02:05:18;99238.94;;;22.55;58.83
27144;BME280;14672;50.250;8.312;2022-07-22T02:07:44;99239.28;;;22.40;59.35
27144;BME280;14672;50.250;8.312;2022-07-22T02:10:10;99248.78;;;22.24;59.64
27144;BME280;14672;50.250;8.312;2022-07-22T02:12:37;99241.44;;;22.23;59.82
27144;BME280;14672;50.250;8.312;2022-07-22T02:15:04;99234.88;;;22.17;60.18
27144;BME280;14672;50.250;8.312;2022-07-22T02:17:32;99243.00;;;22.24;59.82
27144;BME280;14672;50.250;8.312;2022-07-22T02:19:58;99230.13;;;22.25;59.89
27144;BME280;14672;50.250;8.312;2022-07-22T02:22:24;99221.97;;;22.24;59.58
27144;BME280;14672;50.250;8.312;2022-07-22T02:24:50;99225.38;;;22.28;59.80
27144;BME280;14672;50.250;8.312;2022-07-22T02:27:16;99228.28;;;22.17;60.38
27144;BME280;14672;50.250;8.312;2022-07-22T02:29:42;99229.09;;;22.17;60.23
27144;BME280;14672;50.250;8.312;2022-07-22T02:32:08;99230.13;;;22.14;60.38
27144;BME280;14672;50.250;8.312;2022-07-22T02:34:34;99234.09;;;22.11;60.41
27144;BME280;14672;50.250;8.312;2022-07-22T02:37:00;99231.97;;;22.17;60.43
27144;BME280;14672;50.250;8.312;2022-07-22T02:39:26;99228.56;;;22.13;60.52
27144;BME280;14672;50.250;8.312;2022-07-22T02:41:52;99233.56;;;22.07;60.96
27144;BME280;14672;50.250;8.312;2022-07-22T02:44:17;99231.75;;;22.04;61.21
27144;BME280;14672;50.250;8.312;2022-07-22T02:46:43;99224.09;;;22.07;61.62
27144;BME280;14672;50.250;8.312;2022-07-22T02:49:09;99226.44;;;22.14;61.34
27144;BME280;14672;50.250;8.312;2022-07-22T02:51:35;99234.38;;;22.13;61.07
27144;BME280;14672;50.250;8.312;2022-07-22T02:54:02;99238.56;;;22.12;61.13
27144;BME280;14672;50.250;8.312;2022-07-22T02:56:28;99235.13;;;22.14;61.05
27144;BME280;14672;50.250;8.312;2022-07-22T02:58:53;99233.28;;;22.16;61.12
27144;BME280;14672;50.250;8.312;2022-07-22T03:01:20;99229.84;;;22.18;61.32
27144;BME280;14672;50.250;8.312;2022-07-22T03:03:46;99229.31;;;22.25;60.82
27144;BME280;14672;50.250;8.312;2022-07-22T03:06:12;99223.53;;;22.25;60.78
27144;BME280;14672;50.250;8.312;2022-07-22T03:08:39;99224.34;;;22.25;61.01
27144;BME280;14672;50.250;8.312;2022-07-22T03:11:05;99235.41;;;22.21;61.26
27144;BME280;14672;50.250;8.312;2022-07-22T03:13:32;99236.19;;;22.16;61.53
27144;BME280;14672;50.250;8.312;2022-07-22T03:15:58;99238.56;;;22.12;61.84
27144;BME280;14672;50.250;8.312;2022-07-22T03:18:24;99245.16;;;22.13;62.20
27144;BME280;14672;50.250;8.312;2022-07-22T03:20:50;99248.00;;;22.18;61.54
27144;BME280;14672;50.250;8.312;2022-07-22T03:23:16;99248.28;;;22.20;61.61
27144;BME280;14672;50.250;8.312;2022-07-22T03:25:42;99259.59;;;22.18;61.65
27144;BME280;14672;50.250;8.312;2022-07-22T03:28:08;99250.91;;;22.18;61.62
27144;BME280;14672;50.250;8.312;2022-07-22T03:30:34;99254.63;;;22.13;61.80
27144;BME280;14672;50.250;8.312;2022-07-22T03:33:00;99249.88;;;22.10;61.93
27144;BME280;14672;50.250;8.312;2022-07-22T03:35:25;99245.94;;;22.08;62.15
27144;BME280;14672;50.250;8.312;2022-07-22T03:37:51;99251.72;;;22.02;62.42
27144;BME280;14672;50.250;8.312;2022-07-22T03:40:17;99257.00;;;21.98;62.32
27144;BME280;14672;50.250;8.312;2022-07-22T03:42:43;99258.06;;;21.95;62.67
27144;BME280;14672;50.250;8.312;2022-07-22T03:45:09;99256.47;;;21.94;62.56
27144;BME280;14672;50.250;8.312;2022-07-22T03:47:36;99264.91;;;21.97;62.59
27144;BME280;14672;50.250;8.312;2022-07-22T03:50:02;99257.50;;;22.02;62.42
27144;BME280;14672;50.250;8.312;2022-07-22T03:52:29;99247.53;;;21.92;63.04
27144;BME280;14672;50.250;8.312;2022-07-22T03:54:55;99254.09;;;21.98;62.80
27144;BME280;14672;50.250;8.312;2022-07-22T03:57:21;99260.44;;;21.96;62.89
27144;BME280;14672;50.250;8.312;2022-07-22T03:59:47;99258.06;;;21.95;62.91
27144;BME280;14672;50.250;8.312;2022-07-22T04:02:13;99256.22;;;21.92;63.10
27144;BME280;14672;50.250;8.312;2022-07-22T04:04:39;99255.38;;;21.86;63.25
27144;BME280;14672;50.250;8.312;2022-07-22T04:07:05;99265.41;;;21.85;63.33
27144;BME280;14672;50.250;8.312;2022-07-22T04:09:31;99260.41;;;21.91;63.27
27144;BME280;14672;50.250;8.312;2022-07-22T04:11:57;99256.47;;;21.94;63.22
27144;BME280;14672;50.250;8.312;2022-07-22T04:14:23;99254.59;;;21.91;63.63
27144;BME280;14672;50.250;8.312;2022-07-22T04:16:49;99251.47;;;21.94;63.60
27144;BME280;14672;50.250;8.312;2022-07-22T04:19:15;99253.31;;;21.92;63.40
27144;BME280;14672;50.250;8.312;2022-07-22T04:21:41;99249.88;;;21.99;63.15
27144;BME280;14672;50.250;8.312;2022-07-22T04:24:08;99248.84;;;21.96;63.57
27144;BME280;14672;50.250;8.312;2022-07-22T04:26:34;99243.84;;;21.97;63.52
27144;BME280;14672;50.250;8.312;2022-07-22T04:29:03;99246.22;;;21.98;63.34
27144;BME280;14672;50.250;8.312;2022-07-22T04:31:29;99237.00;;;21.94;63.58
27144;BME280;14672;50.250;8.312;2022-07-22T04:33:55;99244.13;;;21.93;63.76
27144;BME280;14672;50.250;8.312;2022-07-22T04:36:21;99239.09;;;21.94;63.62
27144;BME280;14672;50.250;8.312;2022-07-22T04:38:47;99240.41;;;21.98;63.58
27144;BME280;14672;50.250;8.312;2022-07-22T04:41:13;99237.28;;;21.96;63.58
27144;BME280;14672;50.250;8.312;2022-07-22T04:43:38;99231.19;;;22.11;63.21
27144;BME280;14672;50.250;8.312;2022-07-22T04:46:04;99226.16;;;22.23;62.61
27144;BME280;14672;50.250;8.312;2022-07-22T04:48:30;99221.13;;;22.34;62.36
27144;BME280;14672;50.250;8.312;2022-07-22T04:51:01;99231.94;;;22.23;63.38
27144;BME280;14672;50.250;8.312;2022-07-22T04:53:28;99220.38;;;22.28;62.82
27144;BME280;14672;50.250;8.312;2022-07-22T04:55:54;99211.63;;;22.39;62.38
27144;BME280;14672;50.250;8.312;2022-07-22T04:58:20;99210.56;;;22.48;61.65
27144;BME280;14672;50.250;8.312;2022-07-22T05:00:47;99215.28;;;22.45;61.71
27144;BME280;14672;50.250;8.312;2022-07-22T05:03:13;99213.97;;;22.46;61.65
27144;BME280;14672;50.250;8.312;2022-07-22T05:05:39;99219.47;;;22.50;61.67
27144;BME280;14672;50.250;8.312;2022-07-22T05:08:05;99218.16;;;22.57;61.15
27144;BME280;14672;50.250;8.312;2022-07-22T05:10:31;99203.69;;;22.57;61.17
27144;BME280;14672;50.250;8.312;2022-07-22T05:12:59;99215.03;;;22.43;61.56
27144;BME280;14672;50.250;8.312;2022-07-22T05:15:25;99218.72;;;22.44;61.81
27144;BME280;14672;50.250;8.312;2022-07-22T05:17:51;99222.09;;;22.54;61.49
27144;BME280;14672;50.250;8.312;2022-07-22T05:20:17;99221.59;;;22.49;61.45
27144;BME280;14672;50.250;8.312;2022-07-22T05:22:43;99229.25;;;22.47;61.48
27144;BME280;14672;50.250;8.312;2022-07-22T05:25:10;99235.56;;;22.45;61.37
27144;BME280;14672;50.250;8.312;2022-07-22T05:27:36;99232.94;;;22.42;61.56
27144;BME280;14672;50.250;8.312;2022-07-22T05:30:02;99226.63;;;22.38;61.80
27144;BME280;14672;50.250;8.312;2022-07-22T05:32:28;99226.38;;;22.36;61.91
27144;BME280;14672;50.250;8.312;2022-07-22T05:34:54;99231.13;;;22.39;61.58
27144;BME280;14672;50.250;8.312;2022-07-22T05:37:20;99236.91;;;22.39;61.66
27144;BME280;14672;50.250;8.312;2022-07-22T05:39:46;99230.31;;;22.44;61.59
27144;BME280;14672;50.250;8.312;2022-07-22T05:42:12;99228.75;;;22.37;61.95
27144;BME280;14672;50.250;8.312;2022-07-22T05:44:37;99235.34;;;22.32;62.26
27144;BME280;14672;50.250;8.312;2022-07-22T05:47:03;99244.28;;;22.40;61.83
27144;BME280;14672;50.250;8.312;2022-07-22T05:49:29;99243.47;;;22.45;61.43
27144;BME280;14672;50.250;8.312;2022-07-22T05:51:55;99248.19;;;22.48;61.38
27144;BME280;14672;50.250;8.312;2022-07-22T05:54:27;99249.00;;;22.48;61.41
27144;BME280;14672;50.250;8.312;2022-07-22T05:56:52;99241.84;;;22.49;61.22
27144;BME280;14672;50.250;8.312;2022-07-22T05:59:18;99244.00;;;22.49;60.71
27144;BME280;14672;50.250;8.312;2022-07-22T06:01:44;99225.78;;;22.60;60.59
27144;BME280;14672;50.250;8.312;2022-07-22T06:04:10;99231.56;;;22.60;60.95
27144;BME280;14672;50.250;8.312;2022-07-22T06:06:36;99225.22;;;22.67;60.84
27144;BME280;14672;50.250;8.312;2022-07-22T06:09:02;99227.31;;;22.72;60.26
27144;BME280;14672;50.250;8.312;2022-07-22T06:11:28;99228.38;;;22.63;60.66
27144;BME280;14672;50.250;8.312;2022-07-22T06:13:53;99224.97;;;22.59;60.68
27144;BME280;14672;50.250;8.312;2022-07-22T06:16:19;99225.78;;;22.60;61.08
27144;BME280;14672;50.250;8.312;2022-07-22T06:18:45;99226.28;;;22.64;60.86
27144;BME280;14672;50.250;8.312;2022-07-22T06:21:11;99220.50;;;22.64;60.45
27144;BME280;14672;50.250;8.312;2022-07-22T06:23:37;99222.31;;;22.67;60.39
27144;BME280;14672;50.250;8.312;2022-07-22T06:26:04;99220.97;;;22.79;59.99
27144;BME280;14672;50.250;8.312;2022-07-22T06:28:30;99218.84;;;22.79;59.93
27144;BME280;14672;50.250;8.312;2022-07-22T06:30:56;99219.88;;;22.87;59.47
27144;BME280;14672;50.250;8.312;2022-07-22T06:33:21;99214.81;;;22.93;58.82
27144;BME280;14672;50.250;8.312;2022-07-22T06:35:47;99216.91;;;22.99;58.68
27144;BME280;14672;50.250;8.312;2022-07-22T06:38:13;99208.25;;;22.93;58.77
27144;BME280;14672;50.250;8.312;2022-07-22T06:40:39;99204.44;;;23.09;58.25
27144;BME280;14672;50.250;8.312;2022-07-22T06:43:05;99200.72;;;23.14;57.97
27144;BME280;14672;50.250;8.312;2022-07-22T06:45:31;99210.69;;;23.24;57.43
27144;BME280;14672;50.250;8.312;2022-07-22T06:47:57;99214.41;;;23.19;56.42
27144;BME280;14672;50.250;8.312;2022-07-22T06:50:24;99212.72;;;23.29;56.33
27144;BME280;14672;50.250;8.312;2022-07-22T06:52:50;99213.28;;;23.28;56.11
27144;BME280;14672;50.250;8.312;2022-07-22T06:55:16;99211.47;;;23.25;56.11
27144;BME280;14672;50.250;8.312;2022-07-22T06:57:42;99208.47;;;23.36;56.04
27144;BME280;14672;50.250;8.312;2022-07-22T07:00:09;99214.75;;;23.46;55.54
27144;BME280;14672;50.250;8.312;2022-07-22T07:02:35;99212.41;;;23.38;55.24
27144;BME280;14672;50.250;8.312;2022-07-22T07:05:01;99216.63;;;23.37;55.33
27144;BME280;14672;50.250;8.312;2022-07-22T07:07:26;99204.72;;;23.47;56.13
27144;BME280;14672;50.250;8.312;2022-07-22T07:09:52;99194.41;;;23.51;55.15
27144;BME280;14672;50.250;8.312;2022-07-22T07:12:18;99203.84;;;23.57;54.37
27144;BME280;14672;50.250;8.312;2022-07-22T07:14:44;99204.13;;;23.54;53.84
27144;BME280;14672;50.250;8.312;2022-07-22T07:17:10;99197.28;;;23.57;54.44
27144;BME280;14672;50.250;8.312;2022-07-22T07:19:36;99200.06;;;23.68;54.71
27144;BME280;14672;50.250;8.312;2022-07-22T07:22:02;99200.56;;;23.72;54.29
27144;BME280;14672;50.250;8.312;2022-07-22T07:24:28;99204.44;;;23.80;54.57
27144;BME280;14672;50.250;8.312;2022-07-22T07:26:53;99200.13;;;23.86;54.70
27144;BME280;14672;50.250;8.312;2022-07-22T07:29:19;99192.19;;;23.93;54.11
27144;BME280;14672;50.250;8.312;2022-07-22T07:31:45;99190.28;;;23.95;53.89
27144;BME280;14672;50.250;8.312;2022-07-22T07:34:11;99190.47;;;24.03;54.46
27144;BME280;14672;50.250;8.312;2022-07-22T07:36:37;99188.84;;;24.07;54.09
27144;BME280;14672;50.250;8.312;2022-07-22T07:39:03;99181.94;;;24.10;53.34
27144;BME280;14672;50.250;8.312;2022-07-22T07:41:29;99187.53;;;24.08;52.93
27144;BME280;14672;50.250;8.312;2022-07-22T07:43:54;99180.38;;;24.09;52.88
27144;BME280;14672;50.250;8.312;2022-07-22T07:46:20;99181.16;;;24.10;52.47
27144;BME280;14672;50.250;8.312;2022-07-22T07:48:47;99181.34;;;23.93;52.48
27144;BME280;14672;50.250;8.312;2022-07-22T07:51:14;99169.84;;;24.06;52.88
27144;BME280;14672;50.250;8.312;2022-07-22T07:53:40;99164.19;;;23.95;52.80
27144;BME280;14672;50.250;8.312;2022-07-22T07:56:06;99163.03;;;24.04;52.39
27144;BME280;14672;50.250;8.312;2022-07-22T07:58:32;99156.34;;;24.09;52.24
27144;BME280;14672;50.250;8.312;2022-07-22T08:00:58;99165.28;;;24.16;52.46
27144;BME280;14672;50.250;8.312;2022-07-22T08:03:24;99158.72;;;24.10;52.09
27144;BME280;14672;50.250;8.312;2022-07-22T08:05:50;99164.00;;;24.12;52.12
27144;BME280;14672;50.250;8.312;2022-07-22T08:08:16;99160.31;;;24.11;52.37
27144;BME280;14672;50.250;8.312;2022-07-22T08:10:48;99161.63;;;24.10;52.72
27144;BME280;14672;50.250;8.312;2022-07-22T08:13:14;99158.38;;;24.19;52.06
27144;BME280;14672;50.250;8.312;2022-07-22T08:15:40;99156.44;;;24.27;51.60
27144;BME280;14672;50.250;8.312;2022-07-22T08:18:06;99154.97;;;24.40;52.27
27144;BME280;14672;50.250;8.312;2022-07-22T08:20:33;99151.97;;;24.45;52.04
27144;BME280;14672;50.250;8.312;2022-07-22T08:22:59;99153.50;;;24.52;51.72
27144;BME280;14672;50.250;8.312;2022-07-22T08:25:25;99156.72;;;24.48;51.08
27144;BME280;14672;50.250;8.312;2022-07-22T08:27:51;99147.38;;;24.55;51.12
27144;BME280;14672;50.250;8.312;2022-07-22T08:30:18;99147.53;;;24.63;51.12
27144;BME280;14672;50.250;8.312;2022-07-22T08:32:46;99141.72;;;24.63;51.21
27144;BME280;14672;50.250;8.312;2022-07-22T08:35:12;99141.47;;;24.61;51.24
27144;BME280;14672;50.250;8.312;2022-07-22T08:37:38;99135.75;;;24.55;50.63
27144;BME280;14672;50.250;8.312;2022-07-22T08:40:06;99142.97;;;24.67;50.66
27144;BME280;14672;50.250;8.312;2022-07-22T08:42:38;99133.38;;;24.72;51.06
27144;BME280;14672;50.250;8.312;2022-07-22T08:45:06;99138.00;;;24.81;50.86
27144;BME280;14672;50.250;8.312;2022-07-22T08:47:32;99135.84;;;24.87;51.04
27144;BME280;14672;50.250;8.312;2022-07-22T08:49:59;99137.63;;;24.90;50.83
27144;BME280;14672;50.250;8.312;2022-07-22T08:52:25;99129.94;;;24.93;50.46
27144;BME280;14672;50.250;8.312;2022-07-22T08:54:51;99124.59;;;24.97;50.83
27144;BME280;14672;50.250;8.312;2022-07-22T08:57:18;99130.31;;;25.02;50.58
27144;BME280;14672;50.250;8.312;2022-07-22T08:59:59;99129.44;;;25.07;50.62
27144;BME280;14672;50.250;8.312;2022-07-22T09:02:26;99125.66;;;25.12;50.34
27144;BME280;14672;50.250;8.312;2022-07-22T09:05:03;99131.47;;;25.12;50.29
27144;BME280;14672;50.250;8.312;2022-07-22T09:07:39;99129.28;;;25.18;50.71
27144;BME280;14672;50.250;8.312;2022-07-22T09:10:15;99123.03;;;25.28;51.09
27144;BME280;14672;50.250;8.312;2022-07-22T09:13:04;99121.59;;;25.34;50.65
27144;BME280;14672;50.250;8.312;2022-07-22T09:15:33;99125.28;;;25.35;50.49
27144;BME280;14672;50.250;8.312;2022-07-22T09:18:02;99118.34;;;25.38;49.87
27144;BME280;14672;50.250;8.312;2022-07-22T09:20:29;99134.47;;;25.39;49.84
27144;BME280;14672;50.250;8.312;2022-07-22T09:22:56;99131.78;;;25.41;49.42
27144;BME280;14672;50.250;8.312;2022-07-22T09:25:34;99123.53;;;25.45;49.76
27144;BME280;14672;50.250;8.312;2022-07-22T09:30:45;99119.56;;;25.61;49.71
27144;BME280;14672;50.250;8.312;2022-07-22T09:33:12;99123.72;;;25.65;49.04
27144;BME280;14672;50.250;8.312;2022-07-22T09:35:39;99123.16;;;25.67;49.14
27144;BME280;14672;50.250;8.312;2022-07-22T09:38:09;99125.38;;;25.61;48.09
27144;BME280;14672;50.250;8.312;2022-07-22T09:40:43;99124.38;;;25.58;47.75
27144;BME280;14672;50.250;8.312;2022-07-22T09:43:12;99111.28;;;25.65;47.58
27144;BME280;14672;50.250;8.312;2022-07-22T09:46:04;99111.41;;;25.59;47.37
27144;BME280;14672;50.250;8.312;2022-07-22T09:48:31;99108.38;;;25.65;48.15
27144;BME280;14672;50.250;8.312;2022-07-22T09:50:58;99101.88;;;25.72;48.26
27144;BME280;14672;50.250;8.312;2022-07-22T09:53:27;99101.00;;;25.77;48.74
27144;BME280;14672;50.250;8.312;2022-07-22T09:56:03;99096.66;;;25.84;48.85
27144;BME280;14672;50.250;8.312;2022-07-22T09:58:30;99094.06;;;25.93;48.83
27144;BME280;14672;50.250;8.312;2022-07-22T10:01:04;99090.72;;;26.02;48.40
27144;BME280;14672;50.250;8.312;2022-07-22T10:03:35;99092.28;;;26.03;48.18
27144;BME280;14672;50.250;8.312;2022-07-22T10:06:04;99078.63;;;26.11;47.82
27144;BME280;14672;50.250;8.312;2022-07-22T10:08:32;99085.09;;;26.17;47.15
27144;BME280;14672;50.250;8.312;2022-07-22T10:11:05;99085.22;;;26.25;47.49
27144;BME280;14672;50.250;8.312;2022-07-22T10:13:31;99081.06;;;26.34;47.01
27144;BME280;14672;50.250;8.312;2022-07-22T10:15:58;99083.53;;;26.43;47.48
27144;BME280;14672;50.250;8.312;2022-07-22T10:18:26;99086.09;;;26.46;46.45
27144;BME280;14672;50.250;8.312;2022-07-22T10:21:09;99081.03;;;26.47;45.51
27144;BME280;14672;50.250;8.312;2022-07-22T10:23:36;99080.13;;;26.52;46.02
27144;BME280;14672;50.250;8.312;2022-07-22T10:26:03;99081.03;;;26.47;45.30
27144;BME280;14672;50.250;8.312;2022-07-22T10:28:37;99065.88;;;26.61;45.67
27144;BME280;14672;50.250;8.312;2022-07-22T10:31:24;99059.13;;;26.67;45.98
27144;BME280;14672;50.250;8.312;2022-07-22T10:33:59;99064.88;;;26.80;45.80
27144;BME280;14672;50.250;8.312;2022-07-22T10:36:37;99063.13;;;26.77;45.37
27144;BME280;14672;50.250;8.312;2022-07-22T10:39:14;99058.47;;;26.94;45.35
27144;BME280;14672;50.250;8.312;2022-07-22T10:41:45;99064.75;;;26.98;44.66
27144;BME280;14672;50.250;8.312;2022-07-22T10:44:12;99056.13;;;27.14;45.07
27144;BME280;14672;50.250;8.312;2022-07-22T10:46:53;99054.78;;;27.15;44.28
27144;BME280;14672;50.250;8.312;2022-07-22T10:49:23;99046.16;;;27.30;44.74
27144;BME280;14672;50.250;8.312;2022-07-22T10:52:11;99043.03;;;27.48;44.99
27144;BME280;14672;50.250;8.312;2022-07-22T10:55:21;99049.56;;;27.62;43.75
27144;BME280;14672;50.250;8.312;2022-07-22T10:57:48;99047.47;;;27.70;43.01
27144;BME280;14672;50.250;8.312;2022-07-22T11:00:15;99037.47;;;27.86;44.18
27144;BME280;14672;50.250;8.312;2022-07-22T11:02:41;99031.84;;;27.96;43.08
27144;BME280;14672;50.250;8.312;2022-07-22T11:05:08;99028.47;;;28.13;43.31
27144;BME280;14672;50.250;8.312;2022-07-22T11:07:44;99038.06;;;28.21;42.47
27144;BME280;14672;50.250;8.312;2022-07-22T11:10:12;99032.25;;;28.28;42.20
27144;BME280;14672;50.250;8.312;2022-07-22T11:12:39;99025.25;;;28.39;42.13
27144;BME280;14672;50.250;8.312;2022-07-22T11:15:06;99029.63;;;28.53;41.52
27144;BME280;14672;50.250;8.312;2022-07-22T11:17:34;99025.75;;;28.58;41.37
27144;BME280;14672;50.250;8.312;2022-07-22T11:20:09;99010.59;;;28.75;41.92
27144;BME280;14672;50.250;8.312;2022-07-22T11:22:36;99010.59;;;28.82;41.60
27144;BME280;14672;50.250;8.312;2022-07-22T11:25:07;99000.28;;;28.97;40.86
27144;BME280;14672;50.250;8.312;2022-07-22T11:27:33;98995.22;;;29.05;40.53
27144;BME280;14672;50.250;8.312;2022-07-22T11:30:00;98997.75;;;29.01;40.02
27144;BME280;14672;50.250;8.312;2022-07-22T11:32:29;98992.69;;;29.09;39.85
27144;BME280;14672;50.250;8.312;2022-07-22T11:34:58;98995.81;;;29.11;39.80
27144;BME280;14672;50.250;8.312;2022-07-22T11:37:27;98987.25;;;29.35;41.06
27144;BME280;14672;50.250;8.312;2022-07-22T11:40:19;98983.72;;;29.52;41.49
27144;BME280;14672;50.250;8.312;2022-07-22T11:42:45;98989.97;;;29.56;39.90
27144;BME280;14672;50.250;8.312;2022-07-22T11:45:11;98991.09;;;29.68;40.49
27144;BME280;14672;50.250;8.312;2022-07-22T11:47:37;98988.19;;;29.68;39.34
27144;BME280;14672;50.250;8.312;2022-07-22T11:50:03;98984.88;;;29.64;38.33
27144;BME280;14672;50.250;8.312;2022-07-22T11:52:29;98978.22;;;29.71;38.57
27144;BME280;14672;50.250;8.312;2022-07-22T11:54:55;98982.84;;;29.82;38.89
27144;BME280;14672;50.250;8.312;2022-07-22T11:57:20;98979.53;;;30.01;39.58
27144;BME280;14672;50.250;8.312;2022-07-22T11:59:46;98979.50;;;30.08;39.45
27144;BME280;14672;50.250;8.312;2022-07-22T12:02:13;98972.97;;;30.25;39.22
27144;BME280;14672;50.250;8.312;2022-07-22T12:04:39;98974.72;;;30.28;38.63
27144;BME280;14672;50.250;8.312;2022-07-22T12:07:06;98969.16;;;30.47;39.66
27144;BME280;14672;50.250;8.312;2022-07-22T12:09:36;98972.19;;;30.64;39.18
27144;BME280;14672;50.250;8.312;2022-07-22T12:12:04;98968.06;;;30.67;38.03
27144;BME280;14672;50.250;8.312;2022-07-22T12:14:33;98963.28;;;30.80;38.23
27144;BME280;14672;50.250;8.312;2022-07-22T12:17:04;98969.66;;;30.93;38.19
27144;BME280;14672;50.250;8.312;2022-07-22T12:19:33;98964.91;;;31.05;38.25
27144;BME280;14672;50.250;8.312;2022-07-22T12:22:12;98951.97;;;31.26;38.33
27144;BME280;14672;50.250;8.312;2022-07-22T12:24:46;98948.38;;;31.35;37.15
27144;BME280;14672;50.250;8.312;2022-07-22T12:27:18;98944.69;;;31.51;38.46
27144;BME280;14672;50.250;8.312;2022-07-22T12:29:48;98937.63;;;31.72;37.69
27144;BME280;14672;50.250;8.312;2022-07-22T12:35:00;98933.72;;;31.86;36.32
27144;BME280;14672;50.250;8.312;2022-07-22T12:37:44;98925.00;;;31.96;36.78
27144;BME280;14672;50.250;8.312;2022-07-22T12:40:22;98928.63;;;32.04;36.05
27144;BME280;14672;50.250;8.312;2022-07-22T12:43:09;98923.28;;;32.10;35.86
27144;BME280;14672;50.250;8.312;2022-07-22T12:45:38;98926.09;;;32.18;35.72
27144;BME280;14672;50.250;8.312;2022-07-22T12:48:07;98919.59;;;32.36;36.56
27144;BME280;14672;50.250;8.312;2022-07-22T12:50:53;98911.94;;;32.50;35.87
27144;BME280;14672;50.250;8.312;2022-07-22T12:53:19;98908.06;;;32.48;35.07
27144;BME280;14672;50.250;8.312;2022-07-22T12:55:49;98918.06;;;32.45;34.64
27144;BME280;14672;50.250;8.312;2022-07-22T12:58:17;98909.91;;;32.26;34.24
27144;BME280;14672;50.250;8.312;2022-07-22T13:00:47;98906.09;;;32.33;34.76
27144;BME280;14672;50.250;8.312;2022-07-22T13:03:13;98912.09;;;32.52;35.23
27144;BME280;14672;50.250;8.312;2022-07-22T13:05:39;98907.44;;;32.49;34.71
27144;BME280;14672;50.250;8.312;2022-07-22T13:08:07;98906.28;;;32.35;33.92